Carl Junction, MO

11:42 AM CDT on July 11, 2014 (GMT -0500)
Joplin Regional (KJLN) Elev 981 ft | 37.15 °N, 94.50 °W | Change Station

Current weather conditions updated 49 minutes ago

Clear
Clear
85 °F
Feels Like 89 °F
N
12
Wind Variable Wind from SSW
Gusts 21 mph

Today is forecast to be Much Warmer than yesterday.

Today
High -- | Low -- °F
--% Chance of Precip.
Yesterday
High -- | Low -- °F
Precip. -- in
6:07 AM 8:39 PM
Waxing Gibbous, 99% visible
Pressure 30.08 in
Visibility 10.0 miles
Clouds Clear
Heat Index 89 °F
Dew Point 69 °F
Humidity 59%
Rainfall 0.00 in
Snow Depth Not available.
UV 9 out of 12
Pollen 4.40 out of 12
Air Quality Not available.
Flu Activity Sporadic
METAR KJLN 111553Z 21010G18KT 10SM CLR 29/21 A3012 RMK AO2 SLP186 T02940206

More Conditions Fewer Conditions

Pressure 30.08 in
Visibility 10.0 miles
Clouds Clear
Heat Index 89 °F
Dew Point 69 °F
Humidity 59%
Rainfall 0.00 in
Snow Depth Not available.
UV 9 out of 12
Pollen 4.40 out of 12
Air Quality Not available.
Flu Activity Sporadic
METAR KJLN 111553Z 21010G18KT 10SM CLR 29/21 A3012 RMK AO2 SLP186 T02940206

More Conditions Fewer Conditions

10-Day Weather Forecast

Almanac

Astronomy

Jul. 11, 2014 Rise Set
Actual Time 6:07 AM CDT 8:39 PM CDT
Civil Twilight 5:36 AM CDT 9:09 PM CDT
Nautical Twilight 4:59 AM CDT 9:47 PM CDT
Astronomical Twilight 4:17 AM CDT 10:29 PM CDT
Moon 7:52 PM CDT 5:18 AM CDT
Length of Visible Light 15h 33m
Length of Day
14h 32m
Tomorrow will be 1m 3s shorter.
Waxing Gibbous, 99% of the Moon is Illuminated
Today
Waxing Gibbous
Jul 12
Full
Jul 18
Last Quarter
Jul 26
New
Aug 3
First Quarter

Today's Extremes

State Highs State Lows

Community

WunderPhotos

Upload Photos

1,732,515 photos uploaded!

Nearby

Snow Depth

Station Depth Elevation
No new snow has been reported.

Earthquake Activity

City Distance Mag. Time & Date
No recent earthquake activity has been reported nearby.
Minimum magnitude displayed is 2.5.

Coastal Water Temperatures

Place Temperature
No Stations Reporting

Nearby Weather Stations

Station Location Temp. Heat Index Dew Point Humidity Wind Precip. Elev Updated Type
Mohaska, Joplin, MO 87.4 °F 95 °F 73 °F 62% South  at  6.0 mph 0.00 in / hr 1010 ft 11:31 AM CDT Normal
ESE Cherokee Co Kansas, Columbus, KS 87.9 °F 96 °F 74 °F 63% South  at  12.0 mph 0.00 in / hr 951 ft 11:35 AM CDT Normal
Southwest Pittsburg, Kansas, Pittsburg, KS 89.2 °F 101 °F 74 °F 66% North  at  - - / hr 935 ft 11:35 AM CDT Normal
Frontenac Schools, Frontenac, KS 88.7 °F 95 °F 72 °F 57% SW  at  6.0 mph 0.00 in / hr 950 ft 11:42 AM CDT Rapid Fire
Frontenac, KS 86.5 °F 95 °F 74 °F 66% SSW  at  4.1 mph 0.00 in / hr 942 ft 11:42 AM CDT Rapid Fire
Frontenac KS, Frontenac, KS 93.1 °F 103 °F 74 °F 54% SW  at  1.8 mph 0.00 in / hr 948 ft 11:42 AM CDT Rapid Fire

Show More Stations Show Fewer Stations